Impacts TAF Board INFO
FOR SITUATIONAL AWARENESS. NOT TO BE USED FOR FLIGHT PLANNING PURPOSES.
IDs:

KBWI - Baltimore-Washington, MD, US

Issued at 1025 UTC 23 May 2018
Updated at 1110 UTC 23 May 2018
Potential Impact None Slight Moderate High
Time1054Z 23/12Z 23/13Z 23/14Z 23/15Z 23/16Z 23/17Z 23/18Z 23/19Z 23/20Z 23/21Z 23/22Z 23/23Z 24/00Z>>
Type OBS PRVL PRVL PRVL PRVL PRVL PRVL PRVL PRVL PRVL PRVL PRVL PRVL PRVL
VIS 7 3 >6 >6 >6 >6 >6 >6 >6 >6 >6 >6 >6 >6
CIG 250 150 35 35 35 35 -- -- -- -- -- -- -- --
Cover BKN BKN BKN BKN BKN BKN SCT SCT SCT SCT SCT SCT FEW FEW
FltCat VFR MVFR VFR VFR VFR VFR VFR VFR VFR VFR VFR VFR VFR VFR
WX -- BR -- -- -- -- -- -- -- -- -- -- -- --
WDir 260 VRB 330 330 330 330 330 330 330 330 330 330 330 330
WSpd 5 3 8 8 8 8 9 9 9 9 9 9 6 6
WGst -- -- -- -- -- -- -- -- -- -- -- -- -- --

Raw TAF
KBWI 231025Z 2310/2412 VRB03KT 3SM BR SCT050 BKN150
  TEMPO 2310/2312 2SM BR BKN006
  FM231300 33008KT P6SM BKN035
  FM231700 33009KT P6SM SCT035
  FM232300 33006KT P6SM FEW250


Raw METAR
KBWI 231054Z 26005KT 7SM FEW006 SCT046 SCT150 BKN250 19/19 A2995 RMK AO2 SLP140 T01940194
KBWI 231015Z 00000KT 3SM BR SCT006 SCT055 OVC150 18/18 A2993 RMK AO2 T01830183
KBWI 230954Z 27003KT 4SM BR FEW010 SCT055 BKN150 BKN240 18/18 A2992 RMK AO2 SLP131 T01780178
KBWI 230854Z 21003KT 9SM SCT240 19/19 A2991 RMK AO2 SLP127 T01890189 55007

METAR Board
Radar Display
Forecast Discussion

FOR SITUATIONAL AWARENESS. NOT TO BE USED FOR FLIGHT PLANNING PURPOSES.